sensor_id;sensor_type;location;lat;lon;timestamp;temperature;humidity
14705;DHT22;7442;50.840;3.396;2022-09-02T00:01:44;27.10;47.30
14705;DHT22;7442;50.840;3.396;2022-09-02T00:04:19;27.10;47.10
14705;DHT22;7442;50.840;3.396;2022-09-02T00:06:51;27.10;47.20
14705;DHT22;7442;50.840;3.396;2022-09-02T00:09:24;27.10;47.20
14705;DHT22;7442;50.840;3.396;2022-09-02T00:11:56;27.10;47.10
14705;DHT22;7442;50.840;3.396;2022-09-02T00:14:29;27.10;47.10
14705;DHT22;7442;50.840;3.396;2022-09-02T00:16:59;27.10;47.00
14705;DHT22;7442;50.840;3.396;2022-09-02T00:19:30;27.10;47.00
14705;DHT22;7442;50.840;3.396;2022-09-02T00:22:01;27.10;47.00
14705;DHT22;7442;50.840;3.396;2022-09-02T00:24:31;27.10;47.00
14705;DHT22;7442;50.840;3.396;2022-09-02T00:27:02;27.20;46.90
14705;DHT22;7442;50.840;3.396;2022-09-02T00:29:32;27.20;46.90
14705;DHT22;7442;50.840;3.396;2022-09-02T00:32:02;27.20;46.70
14705;DHT22;7442;50.840;3.396;2022-09-02T00:34:32;27.30;46.70
14705;DHT22;7442;50.840;3.396;2022-09-02T00:37:02;27.30;46.60
14705;DHT22;7442;50.840;3.396;2022-09-02T00:39:32;27.20;46.50
14705;DHT22;7442;50.840;3.396;2022-09-02T00:42:03;27.20;46.60
14705;DHT22;7442;50.840;3.396;2022-09-02T00:44:35;27.20;46.60
14705;DHT22;7442;50.840;3.396;2022-09-02T00:47:05;27.20;46.80
14705;DHT22;7442;50.840;3.396;2022-09-02T00:49:37;27.10;46.70
14705;DHT22;7442;50.840;3.396;2022-09-02T00:52:16;27.10;46.80
14705;DHT22;7442;50.840;3.396;2022-09-02T00:54:51;27.00;46.90
14705;DHT22;7442;50.840;3.396;2022-09-02T00:57:22;27.00;46.90
14705;DHT22;7442;50.840;3.396;2022-09-02T01:00:20;27.00;47.10
14705;DHT22;7442;50.840;3.396;2022-09-02T01:02:49;26.90;47.00
14705;DHT22;7442;50.840;3.396;2022-09-02T01:05:21;26.90;47.00
14705;DHT22;7442;50.840;3.396;2022-09-02T01:07:53;26.90;47.10
14705;DHT22;7442;50.840;3.396;2022-09-02T01:10:26;26.90;47.10
14705;DHT22;7442;50.840;3.396;2022-09-02T01:13:00;26.90;47.10
14705;DHT22;7442;50.840;3.396;2022-09-02T01:15:35;26.90;47.00
14705;DHT22;7442;50.840;3.396;2022-09-02T01:18:07;26.90;47.00
14705;DHT22;7442;50.840;3.396;2022-09-02T01:20:38;26.90;46.90
14705;DHT22;7442;50.840;3.396;2022-09-02T01:23:08;26.90;47.10
14705;DHT22;7442;50.840;3.396;2022-09-02T01:25:39;26.80;47.20
14705;DHT22;7442;50.840;3.396;2022-09-02T01:28:14;26.80;47.20
14705;DHT22;7442;50.840;3.396;2022-09-02T01:30:47;26.80;47.20
14705;DHT22;7442;50.840;3.396;2022-09-02T01:33:19;26.90;47.10
14705;DHT22;7442;50.840;3.396;2022-09-02T01:35:50;26.80;47.10
14705;DHT22;7442;50.840;3.396;2022-09-02T01:38:21;26.80;47.20
14705;DHT22;7442;50.840;3.396;2022-09-02T01:40:53;26.80;47.20
14705;DHT22;7442;50.840;3.396;2022-09-02T01:43:25;26.80;47.10
14705;DHT22;7442;50.840;3.396;2022-09-02T01:45:58;26.80;47.20
14705;DHT22;7442;50.840;3.396;2022-09-02T01:48:28;26.80;47.20
14705;DHT22;7442;50.840;3.396;2022-09-02T01:51:00;26.80;47.20
14705;DHT22;7442;50.840;3.396;2022-09-02T01:53:30;26.70;47.10
14705;DHT22;7442;50.840;3.396;2022-09-02T01:56:01;26.70;47.20
14705;DHT22;7442;50.840;3.396;2022-09-02T01:58:31;26.60;47.30
14705;DHT22;7442;50.840;3.396;2022-09-02T02:01:02;26.60;47.40
14705;DHT22;7442;50.840;3.396;2022-09-02T02:03:35;26.60;47.50
14705;DHT22;7442;50.840;3.396;2022-09-02T02:06:10;26.60;47.40
14705;DHT22;7442;50.840;3.396;2022-09-02T02:08:40;26.60;47.40
14705;DHT22;7442;50.840;3.396;2022-09-02T02:11:17;26.50;47.50
14705;DHT22;7442;50.840;3.396;2022-09-02T02:13:43;26.50;47.50
14705;DHT22;7442;50.840;3.396;2022-09-02T02:16:14;26.50;47.70
14705;DHT22;7442;50.840;3.396;2022-09-02T02:18:45;26.40;47.60
14705;DHT22;7442;50.840;3.396;2022-09-02T02:21:15;26.50;47.70
14705;DHT22;7442;50.840;3.396;2022-09-02T02:23:45;26.50;47.60
14705;DHT22;7442;50.840;3.396;2022-09-02T02:26:15;26.50;47.70
14705;DHT22;7442;50.840;3.396;2022-09-02T02:28:45;26.50;47.60
14705;DHT22;7442;50.840;3.396;2022-09-02T02:31:16;26.50;47.60
14705;DHT22;7442;50.840;3.396;2022-09-02T02:33:46;26.50;47.40
14705;DHT22;7442;50.840;3.396;2022-09-02T02:36:16;26.50;47.50
14705;DHT22;7442;50.840;3.396;2022-09-02T02:38:47;26.50;47.50
14705;DHT22;7442;50.840;3.396;2022-09-02T02:41:17;26.50;47.40
14705;DHT22;7442;50.840;3.396;2022-09-02T02:43:47;26.50;47.40
14705;DHT22;7442;50.840;3.396;2022-09-02T02:46:17;26.50;47.40
14705;DHT22;7442;50.840;3.396;2022-09-02T02:48:47;26.40;47.50
14705;DHT22;7442;50.840;3.396;2022-09-02T02:51:19;26.40;47.40
14705;DHT22;7442;50.840;3.396;2022-09-02T02:53:49;26.40;47.50
14705;DHT22;7442;50.840;3.396;2022-09-02T02:56:21;26.30;47.60
14705;DHT22;7442;50.840;3.396;2022-09-02T02:58:51;26.30;47.80
14705;DHT22;7442;50.840;3.396;2022-09-02T03:01:22;26.30;47.80
14705;DHT22;7442;50.840;3.396;2022-09-02T03:03:52;26.30;47.70
14705;DHT22;7442;50.840;3.396;2022-09-02T03:06:22;26.30;47.60
14705;DHT22;7442;50.840;3.396;2022-09-02T03:08:52;26.30;47.60
14705;DHT22;7442;50.840;3.396;2022-09-02T03:11:23;26.20;47.70
14705;DHT22;7442;50.840;3.396;2022-09-02T03:13:55;26.20;48.30
14705;DHT22;7442;50.840;3.396;2022-09-02T03:16:25;26.20;47.60
14705;DHT22;7442;50.840;3.396;2022-09-02T03:18:55;26.30;47.60
14705;DHT22;7442;50.840;3.396;2022-09-02T03:21:25;26.20;47.70
14705;DHT22;7442;50.840;3.396;2022-09-02T03:23:55;26.30;47.70
14705;DHT22;7442;50.840;3.396;2022-09-02T03:26:25;26.30;47.50
14705;DHT22;7442;50.840;3.396;2022-09-02T03:28:56;26.40;47.50
14705;DHT22;7442;50.840;3.396;2022-09-02T03:31:27;26.40;47.50
14705;DHT22;7442;50.840;3.396;2022-09-02T03:33:57;26.40;47.50
14705;DHT22;7442;50.840;3.396;2022-09-02T03:36:32;26.30;47.50
14705;DHT22;7442;50.840;3.396;2022-09-02T03:39:05;26.30;47.50
14705;DHT22;7442;50.840;3.396;2022-09-02T03:41:36;26.40;47.60
14705;DHT22;7442;50.840;3.396;2022-09-02T03:44:09;26.30;47.40
14705;DHT22;7442;50.840;3.396;2022-09-02T03:46:39;26.40;47.40
14705;DHT22;7442;50.840;3.396;2022-09-02T03:49:15;26.40;47.40
14705;DHT22;7442;50.840;3.396;2022-09-02T03:51:45;26.30;47.30
14705;DHT22;7442;50.840;3.396;2022-09-02T03:54:22;26.30;47.40
14705;DHT22;7442;50.840;3.396;2022-09-02T03:56:53;26.20;47.50
14705;DHT22;7442;50.840;3.396;2022-09-02T03:59:23;26.20;48.20
14705;DHT22;7442;50.840;3.396;2022-09-02T04:02:00;26.20;47.50
14705;DHT22;7442;50.840;3.396;2022-09-02T04:04:31;26.20;47.50
14705;DHT22;7442;50.840;3.396;2022-09-02T04:07:01;26.20;47.60
14705;DHT22;7442;50.840;3.396;2022-09-02T04:09:31;26.20;47.30
14705;DHT22;7442;50.840;3.396;2022-09-02T04:12:03;26.20;47.50
14705;DHT22;7442;50.840;3.396;2022-09-02T04:14:34;26.10;47.50
14705;DHT22;7442;50.840;3.396;2022-09-02T04:17:05;26.10;47.50
14705;DHT22;7442;50.840;3.396;2022-09-02T04:19:35;26.10;47.50
14705;DHT22;7442;50.840;3.396;2022-09-02T04:22:07;26.00;47.40
14705;DHT22;7442;50.840;3.396;2022-09-02T04:24:37;26.00;47.70
14705;DHT22;7442;50.840;3.396;2022-09-02T04:27:07;25.90;47.60
14705;DHT22;7442;50.840;3.396;2022-09-02T04:29:38;26.00;47.70
14705;DHT22;7442;50.840;3.396;2022-09-02T04:32:08;26.00;47.70
14705;DHT22;7442;50.840;3.396;2022-09-02T04:34:38;26.00;47.70
14705;DHT22;7442;50.840;3.396;2022-09-02T04:37:08;26.00;47.60
14705;DHT22;7442;50.840;3.396;2022-09-02T04:39:38;26.00;47.70
14705;DHT22;7442;50.840;3.396;2022-09-02T04:42:08;26.00;47.50
14705;DHT22;7442;50.840;3.396;2022-09-02T04:44:38;26.00;47.60
14705;DHT22;7442;50.840;3.396;2022-09-02T04:47:08;26.00;47.60
14705;DHT22;7442;50.840;3.396;2022-09-02T04:49:39;25.90;47.60
14705;DHT22;7442;50.840;3.396;2022-09-02T04:52:10;25.90;47.60
14705;DHT22;7442;50.840;3.396;2022-09-02T04:54:40;25.80;47.80
14705;DHT22;7442;50.840;3.396;2022-09-02T04:57:10;25.80;47.90
14705;DHT22;7442;50.840;3.396;2022-09-02T04:59:40;25.80;47.90
14705;DHT22;7442;50.840;3.396;2022-09-02T05:02:10;25.90;47.70
14705;DHT22;7442;50.840;3.396;2022-09-02T05:04:40;25.90;47.70
14705;DHT22;7442;50.840;3.396;2022-09-02T05:07:10;25.90;47.60
14705;DHT22;7442;50.840;3.396;2022-09-02T05:09:40;25.90;47.60
14705;DHT22;7442;50.840;3.396;2022-09-02T05:12:10;25.90;47.60
14705;DHT22;7442;50.840;3.396;2022-09-02T05:14:41;25.80;47.70
14705;DHT22;7442;50.840;3.396;2022-09-02T05:17:11;25.80;47.80
14705;DHT22;7442;50.840;3.396;2022-09-02T05:19:42;25.80;47.60
14705;DHT22;7442;50.840;3.396;2022-09-02T05:22:12;25.90;47.70
14705;DHT22;7442;50.840;3.396;2022-09-02T05:24:42;25.90;47.60
14705;DHT22;7442;50.840;3.396;2022-09-02T05:27:13;25.80;47.60
14705;DHT22;7442;50.840;3.396;2022-09-02T05:29:44;25.80;47.70
14705;DHT22;7442;50.840;3.396;2022-09-02T05:32:14;25.80;47.60
14705;DHT22;7442;50.840;3.396;2022-09-02T05:34:45;25.90;47.60
14705;DHT22;7442;50.840;3.396;2022-09-02T05:37:16;25.90;47.60
14705;DHT22;7442;50.840;3.396;2022-09-02T05:39:46;25.90;47.60
14705;DHT22;7442;50.840;3.396;2022-09-02T05:42:17;25.90;47.60
14705;DHT22;7442;50.840;3.396;2022-09-02T05:44:48;25.90;47.60
14705;DHT22;7442;50.840;3.396;2022-09-02T05:47:18;25.90;47.60
14705;DHT22;7442;50.840;3.396;2022-09-02T05:49:48;25.90;47.40
14705;DHT22;7442;50.840;3.396;2022-09-02T05:52:19;26.00;47.50
14705;DHT22;7442;50.840;3.396;2022-09-02T05:54:49;26.00;47.40
14705;DHT22;7442;50.840;3.396;2022-09-02T05:57:19;25.90;47.40
14705;DHT22;7442;50.840;3.396;2022-09-02T05:59:50;25.90;47.40
14705;DHT22;7442;50.840;3.396;2022-09-02T06:02:25;25.90;47.40
14705;DHT22;7442;50.840;3.396;2022-09-02T06:04:55;25.90;47.40
14705;DHT22;7442;50.840;3.396;2022-09-02T06:07:25;25.90;47.50
14705;DHT22;7442;50.840;3.396;2022-09-02T06:09:55;25.90;47.50
14705;DHT22;7442;50.840;3.396;2022-09-02T06:12:26;25.90;47.40
14705;DHT22;7442;50.840;3.396;2022-09-02T06:14:57;25.90;47.40
14705;DHT22;7442;50.840;3.396;2022-09-02T06:17:28;26.00;47.20
14705;DHT22;7442;50.840;3.396;2022-09-02T06:19:58;26.00;47.20
14705;DHT22;7442;50.840;3.396;2022-09-02T06:22:28;26.00;47.20
14705;DHT22;7442;50.840;3.396;2022-09-02T06:24:58;26.00;47.80
14705;DHT22;7442;50.840;3.396;2022-09-02T06:27:28;26.00;47.20
14705;DHT22;7442;50.840;3.396;2022-09-02T06:30:01;26.00;47.10
14705;DHT22;7442;50.840;3.396;2022-09-02T06:32:31;26.10;46.90
14705;DHT22;7442;50.840;3.396;2022-09-02T06:35:01;26.20;46.80
14705;DHT22;7442;50.840;3.396;2022-09-02T06:37:33;26.10;46.90
14705;DHT22;7442;50.840;3.396;2022-09-02T06:40:04;26.10;46.70
14705;DHT22;7442;50.840;3.396;2022-09-02T06:42:35;26.20;46.60
14705;DHT22;7442;50.840;3.396;2022-09-02T06:45:05;26.20;46.50
14705;DHT22;7442;50.840;3.396;2022-09-02T06:47:36;26.30;46.60
14705;DHT22;7442;50.840;3.396;2022-09-02T06:50:06;26.30;46.60
14705;DHT22;7442;50.840;3.396;2022-09-02T06:52:37;26.30;46.40
14705;DHT22;7442;50.840;3.396;2022-09-02T06:55:08;26.30;46.40
14705;DHT22;7442;50.840;3.396;2022-09-02T06:57:39;26.30;46.40
14705;DHT22;7442;50.840;3.396;2022-09-02T07:00:10;26.30;46.40
14705;DHT22;7442;50.840;3.396;2022-09-02T07:02:40;26.30;46.40
14705;DHT22;7442;50.840;3.396;2022-09-02T07:05:10;26.30;46.30
14705;DHT22;7442;50.840;3.396;2022-09-02T07:07:43;26.30;46.30
14705;DHT22;7442;50.840;3.396;2022-09-02T07:10:15;26.30;46.30
14705;DHT22;7442;50.840;3.396;2022-09-02T07:12:45;26.30;46.40
14705;DHT22;7442;50.840;3.396;2022-09-02T07:15:15;26.40;46.30
14705;DHT22;7442;50.840;3.396;2022-09-02T07:17:45;26.50;46.20
14705;DHT22;7442;50.840;3.396;2022-09-02T07:20:17;26.50;46.10
14705;DHT22;7442;50.840;3.396;2022-09-02T07:22:47;26.50;46.00
14705;DHT22;7442;50.840;3.396;2022-09-02T07:25:17;26.50;45.90
14705;DHT22;7442;50.840;3.396;2022-09-02T07:27:48;26.50;46.00
14705;DHT22;7442;50.840;3.396;2022-09-02T07:30:19;26.50;45.90
14705;DHT22;7442;50.840;3.396;2022-09-02T07:32:50;26.50;46.20
14705;DHT22;7442;50.840;3.396;2022-09-02T07:35:21;26.40;46.30
14705;DHT22;7442;50.840;3.396;2022-09-02T07:37:51;26.50;46.40
14705;DHT22;7442;50.840;3.396;2022-09-02T07:40:22;26.50;46.40
14705;DHT22;7442;50.840;3.396;2022-09-02T07:42:53;26.50;46.30
14705;DHT22;7442;50.840;3.396;2022-09-02T07:45:23;26.50;46.20
14705;DHT22;7442;50.840;3.396;2022-09-02T07:47:54;26.60;46.00
14705;DHT22;7442;50.840;3.396;2022-09-02T07:50:24;26.70;45.90
14705;DHT22;7442;50.840;3.396;2022-09-02T07:52:57;26.70;45.80
14705;DHT22;7442;50.840;3.396;2022-09-02T07:55:27;26.80;45.70
14705;DHT22;7442;50.840;3.396;2022-09-02T07:57:59;26.80;45.60
14705;DHT22;7442;50.840;3.396;2022-09-02T08:00:29;26.90;45.50
14705;DHT22;7442;50.840;3.396;2022-09-02T08:03:03;27.00;45.40
14705;DHT22;7442;50.840;3.396;2022-09-02T08:05:34;27.10;45.30
14705;DHT22;7442;50.840;3.396;2022-09-02T08:08:06;27.00;45.20
14705;DHT22;7442;50.840;3.396;2022-09-02T08:10:37;27.10;45.20
14705;DHT22;7442;50.840;3.396;2022-09-02T08:13:07;27.20;45.20
14705;DHT22;7442;50.840;3.396;2022-09-02T08:15:38;27.20;45.20
14705;DHT22;7442;50.840;3.396;2022-09-02T08:18:08;27.30;45.00
14705;DHT22;7442;50.840;3.396;2022-09-02T08:20:38;27.30;45.00
14705;DHT22;7442;50.840;3.396;2022-09-02T08:23:08;27.30;45.00
14705;DHT22;7442;50.840;3.396;2022-09-02T08:25:40;27.30;45.10
14705;DHT22;7442;50.840;3.396;2022-09-02T08:28:11;27.40;44.90
14705;DHT22;7442;50.840;3.396;2022-09-02T08:30:41;27.40;44.70
14705;DHT22;7442;50.840;3.396;2022-09-02T08:33:11;27.50;44.50
14705;DHT22;7442;50.840;3.396;2022-09-02T08:35:41;27.60;44.30
14705;DHT22;7442;50.840;3.396;2022-09-02T08:38:11;27.70;44.30
14705;DHT22;7442;50.840;3.396;2022-09-02T08:40:42;27.80;44.30
14705;DHT22;7442;50.840;3.396;2022-09-02T08:43:26;27.70;44.10
14705;DHT22;7442;50.840;3.396;2022-09-02T08:45:59;27.70;44.10
14705;DHT22;7442;50.840;3.396;2022-09-02T08:48:36;27.70;44.20
14705;DHT22;7442;50.840;3.396;2022-09-02T08:51:19;27.70;44.20
14705;DHT22;7442;50.840;3.396;2022-09-02T08:53:56;27.80;44.10
14705;DHT22;7442;50.840;3.396;2022-09-02T08:56:26;27.80;44.00
14705;DHT22;7442;50.840;3.396;2022-09-02T08:58:57;27.90;44.00
14705;DHT22;7442;50.840;3.396;2022-09-02T09:02:53;27.90;44.00
14705;DHT22;7442;50.840;3.396;2022-09-02T09:18:53;28.20;43.50
14705;DHT22;7442;50.840;3.396;2022-09-02T09:21:19;28.20;43.50
14705;DHT22;7442;50.840;3.396;2022-09-02T09:23:51;28.30;43.30
14705;DHT22;7442;50.840;3.396;2022-09-02T09:26:26;28.30;43.20
14705;DHT22;7442;50.840;3.396;2022-09-02T09:28:55;28.40;43.10
14705;DHT22;7442;50.840;3.396;2022-09-02T09:31:28;28.50;43.00
14705;DHT22;7442;50.840;3.396;2022-09-02T09:34:08;28.50;43.00
14705;DHT22;7442;50.840;3.396;2022-09-02T09:39:27;28.50;42.90
14705;DHT22;7442;50.840;3.396;2022-09-02T09:41:58;28.60;42.90
14705;DHT22;7442;50.840;3.396;2022-09-02T09:47:23;28.70;42.60
14705;DHT22;7442;50.840;3.396;2022-09-02T09:50:12;28.70;42.50
14705;DHT22;7442;50.840;3.396;2022-09-02T09:52:42;28.70;42.60
14705;DHT22;7442;50.840;3.396;2022-09-02T09:57:48;28.70;42.80
14705;DHT22;7442;50.840;3.396;2022-09-02T10:00:21;28.70;42.80
14705;DHT22;7442;50.840;3.396;2022-09-02T10:02:55;28.80;42.70
14705;DHT22;7442;50.840;3.396;2022-09-02T10:05:35;28.70;42.60
14705;DHT22;7442;50.840;3.396;2022-09-02T10:08:03;28.80;42.60
14705;DHT22;7442;50.840;3.396;2022-09-02T10:10:33;28.90;42.60
14705;DHT22;7442;50.840;3.396;2022-09-02T10:13:21;28.90;42.60
14705;DHT22;7442;50.840;3.396;2022-09-02T10:27:04;28.90;42.60
14705;DHT22;7442;50.840;3.396;2022-09-02T10:41:00;29.00;42.60
14705;DHT22;7442;50.840;3.396;2022-09-02T10:43:37;29.00;42.60
14705;DHT22;7442;50.840;3.396;2022-09-02T10:46:05;29.00;42.70
14705;DHT22;7442;50.840;3.396;2022-09-02T10:48:44;29.00;42.70
14705;DHT22;7442;50.840;3.396;2022-09-02T10:56:45;29.00;42.60
14705;DHT22;7442;50.840;3.396;2022-09-02T10:59:24;29.00;42.60
14705;DHT22;7442;50.840;3.396;2022-09-02T11:02:00;29.00;42.60
14705;DHT22;7442;50.840;3.396;2022-09-02T11:07:20;29.00;42.60
14705;DHT22;7442;50.840;3.396;2022-09-02T11:09:59;29.00;43.30
14705;DHT22;7442;50.840;3.396;2022-09-02T11:12:39;29.00;42.80
14705;DHT22;7442;50.840;3.396;2022-09-02T11:15:16;29.00;42.70
14705;DHT22;7442;50.840;3.396;2022-09-02T11:17:52;29.00;42.80
14705;DHT22;7442;50.840;3.396;2022-09-02T11:20:36;29.00;42.90
14705;DHT22;7442;50.840;3.396;2022-09-02T11:28:45;29.00;42.90
14705;DHT22;7442;50.840;3.396;2022-09-02T11:31:18;29.00;42.90
14705;DHT22;7442;50.840;3.396;2022-09-02T11:33:55;29.00;43.00
14705;DHT22;7442;50.840;3.396;2022-09-02T11:36:26;28.90;43.10
14705;DHT22;7442;50.840;3.396;2022-09-02T11:39:00;28.90;43.20
14705;DHT22;7442;50.840;3.396;2022-09-02T11:44:51;28.90;43.30
14705;DHT22;7442;50.840;3.396;2022-09-02T11:53:25;29.00;43.30
14705;DHT22;7442;50.840;3.396;2022-09-02T11:55:58;29.00;43.30
14705;DHT22;7442;50.840;3.396;2022-09-02T11:58:40;29.00;43.30
14705;DHT22;7442;50.840;3.396;2022-09-02T12:01:46;28.90;43.30
14705;DHT22;7442;50.840;3.396;2022-09-02T12:09:49;28.90;43.70
14705;DHT22;7442;50.840;3.396;2022-09-02T12:15:14;28.90;43.80
14705;DHT22;7442;50.840;3.396;2022-09-02T12:26:09;28.80;44.00
14705;DHT22;7442;50.840;3.396;2022-09-02T12:28:42;28.80;43.90
14705;DHT22;7442;50.840;3.396;2022-09-02T12:31:39;28.90;43.90
14705;DHT22;7442;50.840;3.396;2022-09-02T12:36:59;28.80;44.00
14705;DHT22;7442;50.840;3.396;2022-09-02T12:42:30;28.80;44.20
14705;DHT22;7442;50.840;3.396;2022-09-02T12:45:23;28.70;44.40
14705;DHT22;7442;50.840;3.396;2022-09-02T12:48:12;28.80;44.30
14705;DHT22;7442;50.840;3.396;2022-09-02T12:50:54;28.70;44.40
14705;DHT22;7442;50.840;3.396;2022-09-02T12:53:48;28.80;44.40
14705;DHT22;7442;50.840;3.396;2022-09-02T12:56:21;28.80;44.40
14705;DHT22;7442;50.840;3.396;2022-09-02T12:58:56;28.70;44.40
14705;DHT22;7442;50.840;3.396;2022-09-02T13:01:45;28.70;44.50
14705;DHT22;7442;50.840;3.396;2022-09-02T13:04:41;28.70;44.60
14705;DHT22;7442;50.840;3.396;2022-09-02T13:16:16;28.70;44.50
14705;DHT22;7442;50.840;3.396;2022-09-02T13:33:32;28.70;45.40
14705;DHT22;7442;50.840;3.396;2022-09-02T13:36:04;28.70;44.80
14705;DHT22;7442;50.840;3.396;2022-09-02T13:38:35;28.70;44.70
14705;DHT22;7442;50.840;3.396;2022-09-02T13:41:06;28.80;44.70
14705;DHT22;7442;50.840;3.396;2022-09-02T13:43:41;28.80;44.80
14705;DHT22;7442;50.840;3.396;2022-09-02T13:46:13;28.70;44.90
14705;DHT22;7442;50.840;3.396;2022-09-02T13:48:45;28.70;44.90
14705;DHT22;7442;50.840;3.396;2022-09-02T13:51:15;28.70;45.00
14705;DHT22;7442;50.840;3.396;2022-09-02T13:53:47;28.70;45.10
14705;DHT22;7442;50.840;3.396;2022-09-02T13:56:22;28.70;45.00
14705;DHT22;7442;50.840;3.396;2022-09-02T13:58:54;28.70;45.00
14705;DHT22;7442;50.840;3.396;2022-09-02T14:01:31;28.70;45.10
14705;DHT22;7442;50.840;3.396;2022-09-02T14:04:05;28.70;44.90
14705;DHT22;7442;50.840;3.396;2022-09-02T14:06:38;28.80;44.90
14705;DHT22;7442;50.840;3.396;2022-09-02T14:09:10;28.80;44.80
14705;DHT22;7442;50.840;3.396;2022-09-02T14:11:43;28.70;45.00
14705;DHT22;7442;50.840;3.396;2022-09-02T14:14:16;28.70;45.10
14705;DHT22;7442;50.840;3.396;2022-09-02T14:16:47;28.70;45.00
14705;DHT22;7442;50.840;3.396;2022-09-02T14:19:23;28.70;45.10
14705;DHT22;7442;50.840;3.396;2022-09-02T14:21:54;28.70;45.20
14705;DHT22;7442;50.840;3.396;2022-09-02T14:24:27;28.60;45.30
14705;DHT22;7442;50.840;3.396;2022-09-02T14:26:59;28.70;45.20
14705;DHT22;7442;50.840;3.396;2022-09-02T14:29:30;28.70;45.30
14705;DHT22;7442;50.840;3.396;2022-09-02T14:34:45;28.60;45.30
14705;DHT22;7442;50.840;3.396;2022-09-02T14:37:26;28.60;45.30
14705;DHT22;7442;50.840;3.396;2022-09-02T14:40:06;28.60;45.30
14705;DHT22;7442;50.840;3.396;2022-09-02T14:42:49;28.60;45.40
14705;DHT22;7442;50.840;3.396;2022-09-02T14:45:28;28.60;45.30
14705;DHT22;7442;50.840;3.396;2022-09-02T14:48:22;28.70;45.40
14705;DHT22;7442;50.840;3.396;2022-09-02T14:50:58;28.60;45.30
14705;DHT22;7442;50.840;3.396;2022-09-02T14:53:30;28.60;45.50
14705;DHT22;7442;50.840;3.396;2022-09-02T14:56:01;28.50;45.60
14705;DHT22;7442;50.840;3.396;2022-09-02T14:58:32;28.50;45.70
14705;DHT22;7442;50.840;3.396;2022-09-02T15:01:02;28.50;45.80
14705;DHT22;7442;50.840;3.396;2022-09-02T15:03:36;28.50;45.80
14705;DHT22;7442;50.840;3.396;2022-09-02T15:06:07;28.50;45.80
14705;DHT22;7442;50.840;3.396;2022-09-02T15:08:37;28.50;45.80
14705;DHT22;7442;50.840;3.396;2022-09-02T15:11:07;28.50;45.70
14705;DHT22;7442;50.840;3.396;2022-09-02T15:13:37;28.50;45.80
14705;DHT22;7442;50.840;3.396;2022-09-02T15:16:07;28.50;45.70
14705;DHT22;7442;50.840;3.396;2022-09-02T15:18:37;28.60;45.60
14705;DHT22;7442;50.840;3.396;2022-09-02T15:21:07;28.70;45.50
14705;DHT22;7442;50.840;3.396;2022-09-02T15:23:37;28.60;45.70
14705;DHT22;7442;50.840;3.396;2022-09-02T15:26:08;28.50;45.90
14705;DHT22;7442;50.840;3.396;2022-09-02T15:28:38;28.50;46.10
14705;DHT22;7442;50.840;3.396;2022-09-02T15:31:09;28.40;46.00
14705;DHT22;7442;50.840;3.396;2022-09-02T15:33:40;28.40;46.20
14705;DHT22;7442;50.840;3.396;2022-09-02T15:36:12;28.30;46.30
14705;DHT22;7442;50.840;3.396;2022-09-02T15:38:42;28.30;46.40
14705;DHT22;7442;50.840;3.396;2022-09-02T15:41:17;28.30;46.50
14705;DHT22;7442;50.840;3.396;2022-09-02T15:43:47;28.30;46.70
14705;DHT22;7442;50.840;3.396;2022-09-02T15:46:26;28.20;46.80
14705;DHT22;7442;50.840;3.396;2022-09-02T15:49:07;28.30;46.90
14705;DHT22;7442;50.840;3.396;2022-09-02T15:51:33;28.30;47.00
14705;DHT22;7442;50.840;3.396;2022-09-02T15:54:06;28.30;47.00
14705;DHT22;7442;50.840;3.396;2022-09-02T15:56:37;28.30;46.90
14705;DHT22;7442;50.840;3.396;2022-09-02T15:59:17;28.30;46.90
14705;DHT22;7442;50.840;3.396;2022-09-02T16:01:51;28.30;47.10
14705;DHT22;7442;50.840;3.396;2022-09-02T16:04:23;28.20;47.30
14705;DHT22;7442;50.840;3.396;2022-09-02T16:06:55;28.20;47.30
14705;DHT22;7442;50.840;3.396;2022-09-02T16:09:25;28.20;47.70
14705;DHT22;7442;50.840;3.396;2022-09-02T16:11:55;28.20;47.90
14705;DHT22;7442;50.840;3.396;2022-09-02T16:14:25;28.10;47.80
14705;DHT22;7442;50.840;3.396;2022-09-02T16:16:56;28.20;48.00
14705;DHT22;7442;50.840;3.396;2022-09-02T16:19:28;28.10;47.80
14705;DHT22;7442;50.840;3.396;2022-09-02T16:21:58;28.10;47.90
14705;DHT22;7442;50.840;3.396;2022-09-02T16:24:28;28.10;48.10
14705;DHT22;7442;50.840;3.396;2022-09-02T16:26:58;28.20;47.80
14705;DHT22;7442;50.840;3.396;2022-09-02T16:29:28;28.10;48.20
14705;DHT22;7442;50.840;3.396;2022-09-02T16:31:58;28.20;48.00
14705;DHT22;7442;50.840;3.396;2022-09-02T16:34:28;28.20;48.00
14705;DHT22;7442;50.840;3.396;2022-09-02T16:36:58;28.10;48.10
14705;DHT22;7442;50.840;3.396;2022-09-02T16:39:28;28.10;48.50
14705;DHT22;7442;50.840;3.396;2022-09-02T16:41:58;28.10;48.20
14705;DHT22;7442;50.840;3.396;2022-09-02T16:44:30;28.10;48.50
14705;DHT22;7442;50.840;3.396;2022-09-02T16:47:01;28.10;48.20
14705;DHT22;7442;50.840;3.396;2022-09-02T16:49:34;28.10;48.40
14705;DHT22;7442;50.840;3.396;2022-09-02T16:52:04;28.10;48.30
14705;DHT22;7442;50.840;3.396;2022-09-02T16:54:35;28.10;48.40
14705;DHT22;7442;50.840;3.396;2022-09-02T16:57:05;28.10;48.40
14705;DHT22;7442;50.840;3.396;2022-09-02T16:59:35;28.10;48.20
14705;DHT22;7442;50.840;3.396;2022-09-02T17:02:06;28.10;48.10
14705;DHT22;7442;50.840;3.396;2022-09-02T17:04:36;28.10;48.30
14705;DHT22;7442;50.840;3.396;2022-09-02T17:07:06;28.10;48.10
14705;DHT22;7442;50.840;3.396;2022-09-02T17:09:37;28.10;48.20
14705;DHT22;7442;50.840;3.396;2022-09-02T17:12:07;28.10;48.30
14705;DHT22;7442;50.840;3.396;2022-09-02T17:14:37;28.10;48.30
14705;DHT22;7442;50.840;3.396;2022-09-02T17:17:07;28.10;48.20
14705;DHT22;7442;50.840;3.396;2022-09-02T17:19:39;28.10;48.30
14705;DHT22;7442;50.840;3.396;2022-09-02T17:22:09;28.10;48.40
14705;DHT22;7442;50.840;3.396;2022-09-02T17:24:39;28.10;48.40
14705;DHT22;7442;50.840;3.396;2022-09-02T17:27:10;28.10;48.20
14705;DHT22;7442;50.840;3.396;2022-09-02T17:29:40;28.10;48.50
14705;DHT22;7442;50.840;3.396;2022-09-02T17:32:10;28.10;48.40
14705;DHT22;7442;50.840;3.396;2022-09-02T17:34:40;28.10;48.70
14705;DHT22;7442;50.840;3.396;2022-09-02T17:37:10;28.00;48.50
14705;DHT22;7442;50.840;3.396;2022-09-02T17:39:40;28.00;48.70
14705;DHT22;7442;50.840;3.396;2022-09-02T17:42:11;28.00;48.80
14705;DHT22;7442;50.840;3.396;2022-09-02T17:44:41;28.00;48.70
14705;DHT22;7442;50.840;3.396;2022-09-02T17:47:19;28.00;48.70
14705;DHT22;7442;50.840;3.396;2022-09-02T17:49:50;28.00;48.70
14705;DHT22;7442;50.840;3.396;2022-09-02T17:52:22;28.10;49.30
14705;DHT22;7442;50.840;3.396;2022-09-02T17:54:55;28.00;48.50
14705;DHT22;7442;50.840;3.396;2022-09-02T18:00:19;28.10;48.50
14705;DHT22;7442;50.840;3.396;2022-09-02T18:08:43;28.10;49.00
14705;DHT22;7442;50.840;3.396;2022-09-02T18:11:12;28.00;48.60
14705;DHT22;7442;50.840;3.396;2022-09-02T18:14:04;28.00;48.70
14705;DHT22;7442;50.840;3.396;2022-09-02T18:16:33;28.00;48.80
14705;DHT22;7442;50.840;3.396;2022-09-02T18:22:13;28.00;48.70
14705;DHT22;7442;50.840;3.396;2022-09-02T18:30:19;27.90;48.90
14705;DHT22;7442;50.840;3.396;2022-09-02T18:33:10;27.90;49.40